Bela Vista de Goias, Brazil
Current Conditions -  °F | °C
As of 3:00 PM on Friday 28 Nov 2014 (Local Time) from SBGO Reporting Station
Scattered Clouds Scattered Clouds  
Wind Chill: 82°   Ceiling: Unl
Heat Index: 84°   Visibility: 6mi
Dew Point: 64°   Wind: 14mph
Humidity: 54%   Direction: 290°WNW
Pressure: 29.97"   Gusts: NA
Location:  16.97°S, 48.95°W
Report Text: SBGO 281700Z 29012KT 9999 SCT030 FEW035TCU SCT100 28/18 Q1015
Loading
Personal Weather Stations






























Interactive Weather Map New forecast layout! Learn more

10-Day Weather Forecast

Advertisements
Track Severe Weather on mobile